createdAt,value
2018-07-04T00:00:40.660Z,15.26
2018-07-04T00:01:40.636Z,15.26
2018-07-04T00:02:40.620Z,15.26
2018-07-04T00:03:40.608Z,15.26
2018-07-04T00:04:41.044Z,15.20
2018-07-04T00:05:40.576Z,15.10
2018-07-04T00:06:40.563Z,15.05
2018-07-04T00:07:40.548Z,15.07
2018-07-04T00:08:40.532Z,14.97
2018-07-04T00:09:40.518Z,14.97
2018-07-04T00:10:40.552Z,14.83
2018-07-04T00:11:40.492Z,14.74
2018-07-04T00:12:40.473Z,14.69
2018-07-04T00:13:40.460Z,14.56
2018-07-04T00:14:40.444Z,14.58
2018-07-04T00:15:40.434Z,14.56
2018-07-04T00:16:40.471Z,14.58
2018-07-04T00:17:40.404Z,14.56
2018-07-04T00:18:40.389Z,14.56
2018-07-04T00:19:40.385Z,14.63
2018-07-04T00:20:40.356Z,14.55
2018-07-04T00:21:40.392Z,14.45
2018-07-04T00:22:40.323Z,14.41
2018-07-04T00:23:40.311Z,14.33
2018-07-04T00:24:40.297Z,14.33
2018-07-04T00:25:40.339Z,14.26
2018-07-04T00:26:40.265Z,14.27
2018-07-04T00:27:40.601Z,14.26
2018-07-04T00:28:40.242Z,14.26
2018-07-04T00:29:40.230Z,14.19
2018-07-04T00:30:40.206Z,14.22
2018-07-04T00:31:40.192Z,14.18
2018-07-04T00:32:40.185Z,14.27
2018-07-04T00:33:40.212Z,14.23
2018-07-04T00:34:40.147Z,14.23
2018-07-04T00:35:40.133Z,14.21
2018-07-04T00:36:40.121Z,14.19
2018-07-04T00:37:40.099Z,14.30
2018-07-04T00:38:40.088Z,14.33
2018-07-04T00:39:40.121Z,14.30
2018-07-04T00:40:40.056Z,14.33
2018-07-04T00:41:40.044Z,14.33
2018-07-04T00:42:40.034Z,14.31
2018-07-04T00:43:40.011Z,14.33
2018-07-04T00:44:39.997Z,14.30
2018-07-04T00:45:40.032Z,14.22
2018-07-04T00:46:39.964Z,14.30
2018-07-04T00:47:39.949Z,14.23
2018-07-04T00:48:39.936Z,14.16
2018-07-04T00:49:39.919Z,14.05
2018-07-04T00:50:39.905Z,14.04
2018-07-04T00:51:39.940Z,14.01
2018-07-04T00:52:39.875Z,14.00
2018-07-04T00:53:39.857Z,13.96
2018-07-04T00:54:39.848Z,13.91
2018-07-04T00:55:39.827Z,13.85
2018-07-04T00:56:39.812Z,13.71
2018-07-04T00:57:39.849Z,13.61
2018-07-04T00:58:39.784Z,13.65
2018-07-04T00:59:39.773Z,13.65
2018-07-04T01:00:39.750Z,13.79
2018-07-04T01:01:39.738Z,13.72
2018-07-04T01:02:39.720Z,13.78
2018-07-04T01:03:39.756Z,13.72
2018-07-04T01:04:39.688Z,13.72
2018-07-04T01:05:39.676Z,13.60
2018-07-04T01:06:39.659Z,13.64
2018-07-04T01:07:39.642Z,13.57
2018-07-04T01:08:39.627Z,13.49
2018-07-04T01:09:39.676Z,13.49
2018-07-04T01:10:39.596Z,13.47
2018-07-04T01:11:39.585Z,13.45
2018-07-04T01:12:39.567Z,13.53
2018-07-04T01:13:39.549Z,13.53
2018-07-04T01:14:39.535Z,13.58
2018-07-04T01:15:39.569Z,13.43
2018-07-04T01:16:39.507Z,13.46
2018-07-04T01:17:39.492Z,13.36
2018-07-04T01:18:39.473Z,13.39
2018-07-04T01:19:39.520Z,13.42
2018-07-04T01:20:39.440Z,13.45
2018-07-04T01:21:39.423Z,13.42
2018-07-04T01:22:39.411Z,13.42
2018-07-04T01:23:39.392Z,13.29
2018-07-04T01:24:39.428Z,13.27
2018-07-04T01:25:39.364Z,13.16
2018-07-04T01:26:39.346Z,13.16
2018-07-04T01:27:39.332Z,13.08
2018-07-04T01:28:39.315Z,13.11
2018-07-04T01:29:39.299Z,13.04
2018-07-04T01:30:39.330Z,13.02
2018-07-04T01:31:39.267Z,13.01
2018-07-04T01:32:39.258Z,13.06
2018-07-04T01:33:39.235Z,12.99
2018-07-04T01:34:39.219Z,12.88
2018-07-04T01:35:39.206Z,12.79
2018-07-04T01:36:39.248Z,12.69
2018-07-04T01:37:39.173Z,12.62
2018-07-04T01:38:39.154Z,12.50
2018-07-04T01:39:39.138Z,12.53
2018-07-04T01:40:39.173Z,12.47
2018-07-04T01:41:39.109Z,12.51
2018-07-04T01:42:39.096Z,12.46
2018-07-04T01:43:39.075Z,12.53
2018-07-04T01:44:39.060Z,12.43
2018-07-04T01:45:39.042Z,12.35
2018-07-04T01:46:39.077Z,12.29
2018-07-04T01:47:39.010Z,12.30
2018-07-04T01:48:38.993Z,12.28
2018-07-04T01:49:38.978Z,12.18
2018-07-04T01:50:38.963Z,12.15
2018-07-04T01:51:38.950Z,12.14
2018-07-04T01:52:38.979Z,12.14
2018-07-04T01:53:38.911Z,12.10
2018-07-04T01:54:38.895Z,12.10
2018-07-04T01:55:38.884Z,12.15
2018-07-04T01:56:38.916Z,12.13
2018-07-04T01:57:38.847Z,12.26
2018-07-04T01:58:38.831Z,12.23
2018-07-04T01:59:38.814Z,12.23
2018-07-04T02:00:38.798Z,12.33
2018-07-04T02:01:38.783Z,12.30
2018-07-04T02:02:38.814Z,12.35
2018-07-04T02:03:38.751Z,12.30
2018-07-04T02:04:38.732Z,12.28
2018-07-04T02:05:38.715Z,12.33
2018-07-04T02:06:38.700Z,12.40
2018-07-04T02:07:38.732Z,12.44
2018-07-04T02:08:38.666Z,12.46
2018-07-04T02:09:38.651Z,12.46
2018-07-04T02:10:38.632Z,12.47
2018-07-04T02:11:38.620Z,12.41
2018-07-04T02:12:38.652Z,12.47
2018-07-04T02:13:38.583Z,12.54
2018-07-04T02:14:38.566Z,12.40
2018-07-04T02:15:38.550Z,12.47
2018-07-04T02:16:38.535Z,12.46
2018-07-04T02:17:38.516Z,12.43
2018-07-04T02:18:38.549Z,12.48
2018-07-04T02:19:38.482Z,12.33
2018-07-04T02:20:38.466Z,12.33
2018-07-04T02:21:38.452Z,12.29
2018-07-04T02:22:38.439Z,12.36
2018-07-04T02:23:38.466Z,12.41
2018-07-04T02:24:38.404Z,12.32
2018-07-04T02:25:38.383Z,12.35
2018-07-04T02:26:38.368Z,12.32
2018-07-04T02:27:38.353Z,12.35
2018-07-04T02:28:38.334Z,12.43
2018-07-04T02:29:38.370Z,12.46
2018-07-04T02:30:38.309Z,12.50
2018-07-04T02:31:38.287Z,12.44
2018-07-04T02:32:38.268Z,12.48
2018-07-04T02:33:38.256Z,12.26
2018-07-04T02:34:38.236Z,12.26
2018-07-04T02:35:38.268Z,12.29
2018-07-04T02:36:38.200Z,12.33
2018-07-04T02:37:38.185Z,12.28
2018-07-04T02:38:38.165Z,12.35
2018-07-04T02:39:38.150Z,12.28
2018-07-04T02:40:38.132Z,12.33
2018-07-04T02:41:38.175Z,12.29
2018-07-04T02:42:38.099Z,12.32
2018-07-04T02:43:38.082Z,12.43
2018-07-04T02:44:38.068Z,12.28
2018-07-04T02:45:38.104Z,12.32
2018-07-04T02:46:38.034Z,12.25
2018-07-04T02:47:38.022Z,12.25
2018-07-04T02:48:38.004Z,12.25
2018-07-04T02:49:37.983Z,12.18
2018-07-04T02:50:37.966Z,12.28
2018-07-04T02:51:37.999Z,12.14
2018-07-04T02:52:37.936Z,12.23
2018-07-04T02:53:37.919Z,12.18
2018-07-04T02:54:37.902Z,12.25
2018-07-04T02:55:37.886Z,12.15
2018-07-04T02:56:37.919Z,12.13
2018-07-04T02:57:37.851Z,12.23
2018-07-04T02:58:37.833Z,12.08
2018-07-04T02:59:57.020Z,12.07
2018-07-04T03:00:37.798Z,12.00
2018-07-04T03:01:37.834Z,12.07
2018-07-04T03:02:37.771Z,12.07
2018-07-04T03:03:37.749Z,12.08
2018-07-04T03:04:37.739Z,12.10
2018-07-04T03:05:37.715Z,12.15
2018-07-04T03:06:37.788Z,12.18
2018-07-04T03:07:37.742Z,12.22
2018-07-04T03:08:37.665Z,12.23
2018-07-04T03:09:37.651Z,12.22
2018-07-04T03:10:37.632Z,12.25
2018-07-04T03:11:37.616Z,12.23
2018-07-04T03:12:37.658Z,12.21
2018-07-04T03:13:37.580Z,12.13
2018-07-04T03:14:37.567Z,12.14
2018-07-04T03:15:37.548Z,12.10
2018-07-04T03:16:37.531Z,12.10
2018-07-04T03:17:37.569Z,12.17
2018-07-04T03:18:37.503Z,12.13
2018-07-04T03:19:37.485Z,12.18
2018-07-04T03:20:37.464Z,12.18
2018-07-04T03:21:37.446Z,12.17
2018-07-04T03:22:37.480Z,12.23
2018-07-04T03:23:37.412Z,12.13
2018-07-04T03:24:37.400Z,12.14
2018-07-04T03:25:37.379Z,12.15
2018-07-04T03:26:37.362Z,12.14
2018-07-04T03:27:37.400Z,12.17
2018-07-04T03:28:37.329Z,12.18
2018-07-04T03:29:37.316Z,12.14
2018-07-04T03:30:37.296Z,12.15
2018-07-04T03:31:37.280Z,12.21
2018-07-04T03:32:37.263Z,12.08
2018-07-04T03:33:37.299Z,12.13
2018-07-04T03:34:37.232Z,11.99
2018-07-04T03:35:37.211Z,12.00
2018-07-04T03:36:37.195Z,11.97
2018-07-04T03:37:37.180Z,11.97
2018-07-04T03:38:37.209Z,12.07
2018-07-04T03:39:37.147Z,12.07
2018-07-04T03:40:37.127Z,12.17
2018-07-04T03:41:37.111Z,12.15
2018-07-04T03:42:37.096Z,12.11
2018-07-04T03:43:37.126Z,12.08
2018-07-04T03:44:37.065Z,12.08
2018-07-04T03:45:37.044Z,12.04
2018-07-04T03:46:37.028Z,12.08
2018-07-04T03:47:37.014Z,12.15
2018-07-04T03:48:36.993Z,12.11
2018-07-04T03:49:37.028Z,12.10
2018-07-04T03:50:36.959Z,12.13
2018-07-04T03:51:36.944Z,12.00
2018-07-04T03:52:36.927Z,12.08
2018-07-04T03:53:36.910Z,12.13
2018-07-04T03:54:36.895Z,12.22
2018-07-04T03:55:36.925Z,12.21
2018-07-04T03:56:36.859Z,12.17
2018-07-04T03:57:36.843Z,12.23
2018-07-04T03:58:36.825Z,12.13
2018-07-04T03:59:36.863Z,12.13
2018-07-04T04:00:36.792Z,11.99
2018-07-04T04:01:36.776Z,12.05
2018-07-04T04:02:36.757Z,12.11
2018-07-04T04:03:36.740Z,12.10
2018-07-04T04:04:36.724Z,12.17
2018-07-04T04:05:36.759Z,12.23
2018-07-04T04:06:36.693Z,12.15
2018-07-04T04:07:36.678Z,12.29
2018-07-04T04:08:36.658Z,12.29
2018-07-04T04:09:36.644Z,12.30
2018-07-04T04:10:36.673Z,12.29
2018-07-04T04:11:36.610Z,12.29
2018-07-04T04:12:36.591Z,12.22
2018-07-04T04:13:36.572Z,12.30
2018-07-04T04:14:36.561Z,12.32
2018-07-04T04:15:36.592Z,12.33
2018-07-04T04:16:36.527Z,12.44
2018-07-04T04:17:36.508Z,12.46
2018-07-04T04:18:36.488Z,12.50
2018-07-04T04:19:36.474Z,12.46
2018-07-04T04:20:36.507Z,12.47
2018-07-04T04:21:36.440Z,12.55
2018-07-04T04:22:36.426Z,12.61
2018-07-04T04:23:36.405Z,12.63
2018-07-04T04:24:36.392Z,12.55
2018-07-04T04:25:36.377Z,12.65
2018-07-04T04:26:36.411Z,12.59
2018-07-04T04:27:36.344Z,12.72
2018-07-04T04:28:36.322Z,12.69
2018-07-04T04:29:36.308Z,12.71
2018-07-04T04:30:36.293Z,12.77
2018-07-04T04:31:36.273Z,12.72
2018-07-04T04:32:36.308Z,12.73
2018-07-04T04:33:36.241Z,12.80
2018-07-04T04:34:36.232Z,12.86
2018-07-04T04:35:36.208Z,12.91
2018-07-04T04:36:36.191Z,12.95
2018-07-04T04:37:36.178Z,12.86
2018-07-04T04:38:36.222Z,12.98
2018-07-04T04:39:36.145Z,13.04
2018-07-04T04:40:36.220Z,12.98
2018-07-04T04:41:36.108Z,13.05
2018-07-04T04:42:36.142Z,13.17
2018-07-04T04:43:36.102Z,13.14
2018-07-04T04:44:36.058Z,13.19
2018-07-04T04:45:36.043Z,13.27
2018-07-04T04:46:36.024Z,13.32
2018-07-04T04:47:36.059Z,13.36
2018-07-04T04:48:35.994Z,13.36
2018-07-04T04:49:35.979Z,13.40
2018-07-04T04:50:35.958Z,13.39
2018-07-04T04:51:35.944Z,13.42
2018-07-04T04:52:35.929Z,13.47
2018-07-04T04:53:35.963Z,13.42
2018-07-04T04:54:35.895Z,13.67
2018-07-04T04:55:35.877Z,13.60
2018-07-04T04:56:35.861Z,13.78
2018-07-04T04:57:35.848Z,13.71
2018-07-04T04:58:35.880Z,13.80
2018-07-04T04:59:35.815Z,13.80
2018-07-04T05:00:35.797Z,13.76
2018-07-04T05:01:35.780Z,13.86
2018-07-04T05:02:35.768Z,13.88
2018-07-04T05:03:35.798Z,13.90
2018-07-04T05:04:35.732Z,13.83
2018-07-04T05:05:35.723Z,13.78
2018-07-04T05:06:35.705Z,13.79
2018-07-04T05:07:35.684Z,13.79
2018-07-04T05:08:35.671Z,13.93
2018-07-04T05:09:35.709Z,13.94
2018-07-04T05:10:35.640Z,13.91
2018-07-04T05:11:35.624Z,13.98
2018-07-04T05:12:35.603Z,14.01
2018-07-04T05:13:35.589Z,14.09
2018-07-04T05:14:35.631Z,14.15
2018-07-04T05:15:35.622Z,14.22
2018-07-04T05:16:35.543Z,14.16
2018-07-04T05:17:35.533Z,14.23
2018-07-04T05:18:35.516Z,14.18
2018-07-04T05:19:35.503Z,14.27
2018-07-04T05:20:35.528Z,14.37
2018-07-04T05:21:35.466Z,14.31
2018-07-04T05:22:35.446Z,14.41
2018-07-04T05:23:35.431Z,14.53
2018-07-04T05:24:35.416Z,14.52
2018-07-04T05:25:35.407Z,14.55
2018-07-04T05:26:35.447Z,14.56
2018-07-04T05:27:35.420Z,14.64
2018-07-04T05:28:35.355Z,14.74
2018-07-04T05:29:35.337Z,14.77
2018-07-04T05:30:35.325Z,14.79
2018-07-04T05:31:35.307Z,14.89
2018-07-04T05:32:35.291Z,14.93
2018-07-04T05:33:35.329Z,14.97
2018-07-04T05:34:35.263Z,15.01
2018-07-04T05:35:35.244Z,15.04
2018-07-04T05:36:35.229Z,15.08
2018-07-04T05:37:35.219Z,15.17
2018-07-04T05:38:35.199Z,15.15
2018-07-04T05:39:35.236Z,15.27
2018-07-04T05:40:35.168Z,15.32
2018-07-04T05:41:35.155Z,15.40
2018-07-04T05:42:35.339Z,15.50
2018-07-04T05:43:35.121Z,15.47
2018-07-04T05:44:35.386Z,15.48
2018-07-04T05:45:35.097Z,15.56
2018-07-04T05:46:35.077Z,15.58
2018-07-04T05:47:35.079Z,15.66
2018-07-04T05:48:35.048Z,15.72
2018-07-04T05:49:35.083Z,15.68
2018-07-04T05:50:35.022Z,15.73
2018-07-04T05:51:35.004Z,15.78
2018-07-04T05:52:34.990Z,15.69
2018-07-04T05:53:34.976Z,15.83
2018-07-04T05:54:34.960Z,15.98
2018-07-04T05:55:34.995Z,16.16
2018-07-04T05:56:34.930Z,16.32
2018-07-04T05:57:34.915Z,16.26
2018-07-04T05:58:34.904Z,16.18
2018-07-04T05:59:34.887Z,16.22
2018-07-04T06:00:34.871Z,16.28
2018-07-04T06:01:34.907Z,16.14
2018-07-04T06:02:35.080Z,16.43
2018-07-04T06:03:34.832Z,16.43
2018-07-04T06:04:34.816Z,16.40
2018-07-04T06:05:34.799Z,16.43
2018-07-04T06:06:34.835Z,16.47
2018-07-04T06:07:34.774Z,16.47
2018-07-04T06:08:34.761Z,16.44
2018-07-04T06:09:34.748Z,16.40
2018-07-04T06:10:34.728Z,16.37
2018-07-04T06:11:34.765Z,16.43
2018-07-04T06:12:35.311Z,16.47
2018-07-04T06:13:34.687Z,16.47
2018-07-04T06:14:34.673Z,16.61
2018-07-04T06:15:34.657Z,16.55
2018-07-04T06:16:34.850Z,16.58
2018-07-04T06:17:34.938Z,16.57
2018-07-04T06:18:34.616Z,16.49
2018-07-04T06:19:34.606Z,16.57
2018-07-04T06:20:34.592Z,16.58
2018-07-04T06:21:34.576Z,16.51
2018-07-04T06:22:34.868Z,16.65
2018-07-04T06:23:34.595Z,16.73
2018-07-04T06:24:34.532Z,16.76
2018-07-04T06:25:34.520Z,16.72
2018-07-04T06:26:34.548Z,16.69
2018-07-04T06:27:34.492Z,16.67
2018-07-04T06:28:34.829Z,16.73
2018-07-04T06:29:34.464Z,16.74
2018-07-04T06:30:34.450Z,16.82
2018-07-04T06:31:34.437Z,16.90
2018-07-04T06:32:34.424Z,16.94
2018-07-04T06:33:34.412Z,16.92
2018-07-04T06:34:34.748Z,16.91
2018-07-04T06:35:34.383Z,16.79
2018-07-04T06:36:34.369Z,16.92
2018-07-04T06:37:34.355Z,16.99
2018-07-04T06:38:34.342Z,17.04
2018-07-04T06:39:34.327Z,16.95
2018-07-04T06:40:34.568Z,16.98
2018-07-04T06:41:34.328Z,17.13
2018-07-04T06:42:34.292Z,17.13
2018-07-04T06:43:34.275Z,17.20
2018-07-04T06:44:34.262Z,17.28
2018-07-04T06:45:34.247Z,17.27
2018-07-04T06:46:34.287Z,17.31
2018-07-04T06:47:34.226Z,17.39
2018-07-04T06:48:34.208Z,17.43
2018-07-04T06:49:34.197Z,17.37
2018-07-04T06:50:34.180Z,17.43
2018-07-04T06:51:34.472Z,17.52
2018-07-04T06:52:34.204Z,17.59
2018-07-04T06:53:34.140Z,17.62
2018-07-04T06:54:34.269Z,17.62
2018-07-04T06:55:34.112Z,17.75
2018-07-04T06:56:34.099Z,17.78
2018-07-04T06:57:34.388Z,17.87
2018-07-04T06:58:34.123Z,17.99
2018-07-04T06:59:34.060Z,17.96
2018-07-04T07:00:34.048Z,17.97
2018-07-04T07:01:34.035Z,17.93
2018-07-04T07:02:34.020Z,17.96
2018-07-04T07:03:34.917Z,18.05
2018-07-04T07:04:34.045Z,18.17
2018-07-04T07:05:33.986Z,18.17
2018-07-04T07:06:33.968Z,18.27
2018-07-04T07:07:33.957Z,18.05
2018-07-04T07:08:37.060Z,18.21
2018-07-04T07:09:34.720Z,18.18
2018-07-04T07:10:33.919Z,18.11
2018-07-04T07:11:33.909Z,18.34
2018-07-04T07:12:33.892Z,18.56
2018-07-04T07:13:33.880Z,18.54
2018-07-04T07:14:33.868Z,18.60
2018-07-04T07:15:34.212Z,18.54
2018-07-04T07:16:33.844Z,18.54
2018-07-04T07:17:33.827Z,18.54
2018-07-04T07:18:33.814Z,18.68
2018-07-04T07:19:33.800Z,18.66
2018-07-04T07:20:33.788Z,18.67
2018-07-04T07:21:34.139Z,18.70
2018-07-04T07:22:33.765Z,18.70
2018-07-04T07:23:33.753Z,18.78
2018-07-04T07:24:33.740Z,19.04
2018-07-04T07:25:33.982Z,19.00
2018-07-04T07:26:35.132Z,19.16
2018-07-04T07:27:33.753Z,19.08
2018-07-04T07:28:33.692Z,19.09
2018-07-04T07:29:34.283Z,19.22
2018-07-04T07:30:33.717Z,19.20
2018-07-04T07:31:33.653Z,19.27
2018-07-04T07:32:33.640Z,19.41
2018-07-04T07:33:33.933Z,19.54
2018-07-04T07:34:33.615Z,19.81
2018-07-04T07:35:35.020Z,20.05
2018-07-04T07:36:52.845Z,20.04
2018-07-04T07:37:46.316Z,20.22
2018-07-04T07:38:33.568Z,20.19
2018-07-04T07:39:33.560Z,20.27
2018-07-04T07:40:33.544Z,20.32
2018-07-04T07:41:33.545Z,20.39
2018-07-04T07:42:34.277Z,20.70
2018-07-04T07:43:33.512Z,20.74
2018-07-04T07:44:33.501Z,21.03
2018-07-04T07:46:06.996Z,21.19
2018-07-04T07:46:33.679Z,21.41
2018-07-04T07:47:39.737Z,21.58
2018-07-04T07:48:34.113Z,21.56
2018-07-04T07:49:33.446Z,21.80
2018-07-04T07:50:33.632Z,22.07
2018-07-04T07:51:33.720Z,22.25
2018-07-04T07:52:34.824Z,22.40
2018-07-04T07:53:33.405Z,22.41
2018-07-04T07:54:35.301Z,22.55
2018-07-04T07:55:36.414Z,22.53
2018-07-04T07:56:33.368Z,22.76
2018-07-04T07:57:33.676Z,22.83
2018-07-04T07:58:34.765Z,22.93
2018-07-04T07:59:33.341Z,22.92
2018-07-04T08:00:33.388Z,23.10
2018-07-04T08:01:33.321Z,23.29
2018-07-04T08:02:33.309Z,23.45
2018-07-04T08:03:33.600Z,23.51
2018-07-04T08:04:33.292Z,23.69
2018-07-04T08:05:33.286Z,23.66
2018-07-04T08:06:33.323Z,22.83
2018-07-04T08:07:33.263Z,22.73
2018-07-04T08:08:33.260Z,22.89
2018-07-04T08:09:33.563Z,22.93
2018-07-04T08:10:33.240Z,23.10
2018-07-04T08:11:33.579Z,23.63
2018-07-04T08:12:33.223Z,23.63
2018-07-04T08:13:33.216Z,24.00
2018-07-04T08:14:33.202Z,23.91
2018-07-04T08:15:33.498Z,24.16
2018-07-04T08:16:33.190Z,24.34
2018-07-04T08:17:39.495Z,24.40
2018-07-04T08:18:33.176Z,23.86
2018-07-04T08:19:33.165Z,23.86
2018-07-04T08:20:33.157Z,23.76
2018-07-04T08:21:34.055Z,23.98
2018-07-04T08:22:33.745Z,24.38
2018-07-04T08:23:33.178Z,24.51
2018-07-04T08:24:33.129Z,24.53
2018-07-04T08:25:33.120Z,24.70
2018-07-04T08:26:33.108Z,25.04
2018-07-04T08:27:33.404Z,25.31
2018-07-04T08:28:33.146Z,25.46
2018-07-04T08:29:33.091Z,25.56
2018-07-04T08:30:33.078Z,25.66
2018-07-04T08:31:33.070Z,25.73
2018-07-04T08:32:33.072Z,25.70
2018-07-04T08:33:33.396Z,24.89
2018-07-04T08:34:33.112Z,24.70
2018-07-04T08:35:33.654Z,24.56
2018-07-04T08:36:33.044Z,24.44
2018-07-04T08:37:33.033Z,24.59
2018-07-04T08:38:33.029Z,24.94
2018-07-04T08:39:33.320Z,25.36
2018-07-04T08:40:33.069Z,25.61
2018-07-04T08:41:33.011Z,25.53
2018-07-04T08:42:33.002Z,25.53
2018-07-04T08:43:32.995Z,25.52
2018-07-04T08:44:32.999Z,25.68
2018-07-04T08:45:33.345Z,26.01
2018-07-04T08:46:32.983Z,26.31
2018-07-04T08:47:36.008Z,26.30
2018-07-04T08:48:32.971Z,26.52
2018-07-04T08:49:32.968Z,26.70
2018-07-04T08:50:33.019Z,26.89
2018-07-04T08:51:33.260Z,25.95
2018-07-04T08:52:32.961Z,26.01
2018-07-04T08:53:32.953Z,26.23
2018-07-04T08:54:33.143Z,26.57
2018-07-04T08:55:32.987Z,26.31
2018-07-04T08:56:32.936Z,26.30
2018-07-04T08:57:33.233Z,26.46
2018-07-04T08:58:32.955Z,26.38
2018-07-04T08:59:32.922Z,26.52
2018-07-04T09:00:32.920Z,26.67
2018-07-04T09:01:32.964Z,26.57
2018-07-04T09:02:32.914Z,26.76
2018-07-04T09:03:33.415Z,27.00
2018-07-04T09:04:32.919Z,26.97
2018-07-04T09:05:32.908Z,26.63
2018-07-04T09:06:32.947Z,26.94
2018-07-04T09:07:32.897Z,27.31
2018-07-04T09:08:32.896Z,27.16
2018-07-04T09:09:33.204Z,27.13
2018-07-04T09:10:33.904Z,27.19
2018-07-04T09:11:32.972Z,27.16
2018-07-04T09:12:33.089Z,27.12
2018-07-04T09:13:33.489Z,27.13
2018-07-04T09:14:32.900Z,27.03
2018-07-04T09:15:34.593Z,27.17
2018-07-04T09:16:33.128Z,27.44
2018-07-04T09:17:32.877Z,27.88
2018-07-04T09:18:32.872Z,27.85
2018-07-04T09:19:32.871Z,28.20
2018-07-04T09:20:34.281Z,28.25
2018-07-04T09:21:33.167Z,28.09
2018-07-04T09:22:32.913Z,28.03
2018-07-04T09:23:32.861Z,28.17
2018-07-04T09:24:32.877Z,28.44
2018-07-04T09:25:32.864Z,28.56
2018-07-04T09:26:32.860Z,28.81
2018-07-04T09:27:33.464Z,29.13
2018-07-04T09:29:06.320Z,28.94
2018-07-04T09:29:32.883Z,28.91
2018-07-04T09:30:32.852Z,29.15
2018-07-04T09:31:32.853Z,29.00
2018-07-04T09:32:32.906Z,29.02
2018-07-04T09:33:32.908Z,28.84
2018-07-04T09:34:33.057Z,28.75
2018-07-04T09:35:32.853Z,28.84
2018-07-04T09:36:32.852Z,29.03
2018-07-04T09:37:32.865Z,28.94
2018-07-04T09:38:33.162Z,28.59
2018-07-04T09:39:52.102Z,29.15
2018-07-04T09:40:32.855Z,29.17
2018-07-04T09:41:32.856Z,29.58
2018-07-04T09:42:32.867Z,29.27
2018-07-04T09:43:32.854Z,29.06
2018-07-04T09:44:33.165Z,29.15
2018-07-04T09:45:33.508Z,29.36
2018-07-04T09:46:32.860Z,29.83
2018-07-04T09:47:32.857Z,29.68
2018-07-04T09:48:32.855Z,30.10
2018-07-04T09:49:32.881Z,29.86
2018-07-04T09:50:33.155Z,29.47
2018-07-04T09:51:52.115Z,29.76
2018-07-04T09:52:32.856Z,29.87
2018-07-04T09:53:52.067Z,29.95
2018-07-04T09:54:58.580Z,30.11
2018-07-04T09:55:32.856Z,29.80
2018-07-04T09:56:33.155Z,29.81
2018-07-04T09:57:33.060Z,29.58
2018-07-04T09:58:32.855Z,29.65
2018-07-04T09:59:58.887Z,29.86
2018-07-04T10:00:32.872Z,29.84
2018-07-04T10:01:33.465Z,29.95
2018-07-04T10:02:33.163Z,29.99
2018-07-04T10:03:32.865Z,30.28
2018-07-04T10:04:33.472Z,30.43
2018-07-04T10:05:33.520Z,30.74
2018-07-04T10:06:32.870Z,30.68
2018-07-04T10:07:33.069Z,30.93
2018-07-04T10:08:33.368Z,31.01
2018-07-04T10:09:32.868Z,30.14
2018-07-04T10:10:32.873Z,29.89
2018-07-04T10:11:35.965Z,29.92
2018-07-04T10:12:32.914Z,30.14
2018-07-04T10:13:32.900Z,30.18
2018-07-04T10:14:33.177Z,30.36
2018-07-04T10:15:33.538Z,30.28
2018-07-04T10:16:32.886Z,30.89
2018-07-04T10:17:32.884Z,30.67
2018-07-04T10:18:32.879Z,30.88
2018-07-04T10:19:33.490Z,30.56
2018-07-04T10:20:39.453Z,30.14
2018-07-04T10:21:34.354Z,30.17
2018-07-04T10:22:32.891Z,30.49
2018-07-04T10:23:32.888Z,30.88
2018-07-04T10:24:32.956Z,31.07
2018-07-04T10:25:33.099Z,31.22
2018-07-04T10:26:34.608Z,31.11
2018-07-04T10:27:32.951Z,31.27
2018-07-04T10:28:32.901Z,31.64
2018-07-04T10:29:32.903Z,31.81
2018-07-04T10:30:32.905Z,31.81
2018-07-04T10:31:32.901Z,31.76
2018-07-04T10:32:33.356Z,31.98
2018-07-04T10:33:33.115Z,31.87
2018-07-04T10:34:35.945Z,31.44
2018-07-04T10:35:33.115Z,31.11
2018-07-04T10:36:33.125Z,31.41
2018-07-04T10:37:33.525Z,31.56
2018-07-04T10:38:33.274Z,31.71
2018-07-04T10:39:34.341Z,31.79
2018-07-04T10:40:33.537Z,31.98
2018-07-04T10:41:32.932Z,31.66
2018-07-04T10:42:33.153Z,31.46
2018-07-04T10:43:32.939Z,31.95
2018-07-04T10:44:33.490Z,31.81
2018-07-04T10:45:33.144Z,31.91
2018-07-04T10:46:33.153Z,31.45
2018-07-04T10:47:32.949Z,31.30
2018-07-04T10:48:32.965Z,31.68
2018-07-04T10:49:32.957Z,31.49
2018-07-04T10:50:36.365Z,31.57
2018-07-04T10:51:32.966Z,32.02
2018-07-04T10:52:32.964Z,32.31
2018-07-04T10:53:33.173Z,32.58
2018-07-04T10:54:32.977Z,32.69
2018-07-04T10:55:33.176Z,32.80
2018-07-04T10:56:33.275Z,32.64
2018-07-04T10:57:33.585Z,33.01
2018-07-04T10:58:33.023Z,33.45
2018-07-04T10:59:33.597Z,33.32
2018-07-04T11:00:33.191Z,33.22
2018-07-04T11:01:45.777Z,33.22
2018-07-04T11:02:39.562Z,33.09
2018-07-04T11:03:32.998Z,32.85
2018-07-04T11:04:33.083Z,33.06
2018-07-04T11:05:33.017Z,33.07
2018-07-04T11:06:33.057Z,33.06
2018-07-04T11:07:33.015Z,33.24
2018-07-04T11:08:33.544Z,33.10
2018-07-04T11:09:33.049Z,33.49
2018-07-04T11:10:33.060Z,33.93
2018-07-04T11:11:33.036Z,34.15
2018-07-04T11:12:34.289Z,34.37
2018-07-04T11:13:45.773Z,34.32
2018-07-04T11:14:33.541Z,34.34
2018-07-04T11:15:33.048Z,33.42
2018-07-04T11:16:33.048Z,34.13
2018-07-04T11:17:33.185Z,34.62
2018-07-04T11:18:34.482Z,34.78
2018-07-04T11:19:33.285Z,34.60
2018-07-04T11:20:33.568Z,34.32
2018-07-04T11:21:33.067Z,34.70
2018-07-04T11:22:33.086Z,34.40
2018-07-04T11:23:33.329Z,34.23
2018-07-04T11:24:33.082Z,34.47
2018-07-04T11:25:33.083Z,33.57
2018-07-04T11:26:33.091Z,32.69
2018-07-04T11:27:33.103Z,32.21
2018-07-04T11:28:36.128Z,32.23
2018-07-04T11:29:33.361Z,32.06
2018-07-04T11:30:33.713Z,32.58
2018-07-04T11:31:36.440Z,32.41
2018-07-04T11:32:58.786Z,32.42
2018-07-04T11:33:34.534Z,31.94
2018-07-04T11:34:33.369Z,31.68
2018-07-04T11:35:33.319Z,31.61
2018-07-04T11:36:33.129Z,31.51
2018-07-04T11:37:33.436Z,31.49
2018-07-04T11:38:33.333Z,31.60
2018-07-04T11:39:33.151Z,32.01
2018-07-04T11:40:33.187Z,31.99
2018-07-04T11:41:33.138Z,31.87
2018-07-04T11:42:33.744Z,31.74
2018-07-04T11:43:33.671Z,32.09
2018-07-04T11:44:33.757Z,32.70
2018-07-04T11:45:33.200Z,32.38
2018-07-04T11:46:33.144Z,32.33
2018-07-04T11:47:34.433Z,32.09
2018-07-04T11:48:33.155Z,31.98
2018-07-04T11:49:33.523Z,31.78
2018-07-04T11:50:33.153Z,31.75
2018-07-04T11:51:33.207Z,31.89
2018-07-04T11:52:33.159Z,31.67
2018-07-04T11:53:33.367Z,31.76
2018-07-04T11:54:39.463Z,31.68
2018-07-04T11:55:34.068Z,31.64
2018-07-04T11:56:33.190Z,31.76
2018-07-04T11:57:33.519Z,31.89
2018-07-04T11:58:33.166Z,31.81
2018-07-04T11:59:33.172Z,31.60
2018-07-04T12:00:39.442Z,31.64
2018-07-04T12:01:39.744Z,31.45
2018-07-04T12:02:33.380Z,31.78
2018-07-04T12:03:33.224Z,32.31
2018-07-04T12:04:52.383Z,31.99
2018-07-04T12:05:33.282Z,31.98
2018-07-04T12:06:33.381Z,32.02
2018-07-04T12:07:36.518Z,32.51
2018-07-04T12:08:34.664Z,32.57
2018-07-04T12:09:33.189Z,32.28
2018-07-04T12:10:33.792Z,32.06
2018-07-04T12:11:33.392Z,32.16
2018-07-04T12:12:45.924Z,32.41
2018-07-04T12:13:36.575Z,32.64
2018-07-04T12:14:34.611Z,32.60
2018-07-04T12:15:33.196Z,32.48
2018-07-04T12:16:33.195Z,32.17
2018-07-04T12:17:33.200Z,32.13
2018-07-04T12:18:33.202Z,32.01
2018-07-04T12:19:33.705Z,32.08
2018-07-04T12:20:33.404Z,32.57
2018-07-04T12:21:34.618Z,32.21
2018-07-04T12:22:33.204Z,32.09
2018-07-04T12:23:33.207Z,31.99
2018-07-04T12:24:33.208Z,32.17
2018-07-04T12:25:33.514Z,32.17
2018-07-04T12:26:33.457Z,32.26
2018-07-04T12:27:33.218Z,32.27
2018-07-04T12:28:33.213Z,32.11
2018-07-04T12:29:33.215Z,32.23
2018-07-04T12:30:33.417Z,32.35
2018-07-04T12:31:34.934Z,32.06
2018-07-04T12:32:33.243Z,32.13
2018-07-04T12:33:33.221Z,32.08
2018-07-04T12:34:33.224Z,31.97
2018-07-04T12:35:33.237Z,31.86
2018-07-04T12:36:33.237Z,32.05
2018-07-04T12:37:33.638Z,32.05
2018-07-04T12:38:33.243Z,32.55
2018-07-04T12:39:33.236Z,32.60
2018-07-04T12:40:33.288Z,32.32
2018-07-04T12:41:33.238Z,32.31
2018-07-04T12:42:33.236Z,32.19
2018-07-04T12:43:33.625Z,32.27
2018-07-04T12:44:34.234Z,32.20
2018-07-04T12:45:39.456Z,32.19
2018-07-04T12:46:39.520Z,32.23
2018-07-04T12:47:33.241Z,32.33
2018-07-04T12:48:33.249Z,32.80
2018-07-04T12:49:33.597Z,33.12
2018-07-04T12:50:33.250Z,32.77
2018-07-04T12:51:33.247Z,32.31
2018-07-04T12:52:33.249Z,32.28